AAL2785 KLAX-KLAS
Flight info
| Callsign | AAL2785 |
|---|---|
| Flight time | 0h 58m |
| Altitude | 29000 |
| Route | ORCKA5 MISEN RNDRZ3 |
| Aircraft | A20N/M-SDE2E3FGHIRWXY/LB1 |
Departure
| Time | 2026-05-05 21:23 |
|---|---|
| Airport | Los Angeles International Airport (KLAX) |
Arrival
| Time | 2026-05-05 22:21 |
|---|---|
| Airport | Harry Reid International Airport (KLAS) |
| Time | Latitude | Longitude | Altitude | Speed | Heading |
|---|---|---|---|---|---|
| 2026-05-05 20:44 | 33.94015 | -118.40747 | 92 ft | 0 kts | 71° |
| 2026-05-05 21:09 | 33.94013 | -118.40753 | 94 ft | 2 kts | 71° |
| 2026-05-05 21:09 | 33.94008 | -118.40770 | 93 ft | 3 kts | 74° |
| 2026-05-05 21:10 | 33.94003 | -118.40792 | 92 ft | 3 kts | 72° |
| 2026-05-05 21:10 | 33.94005 | -118.40821 | 92 ft | 4 kts | 143° |
| 2026-05-05 21:10 | 33.94013 | -118.40828 | 93 ft | 0 kts | 167° |
| 2026-05-05 21:15 | 33.94009 | -118.40827 | 92 ft | 2 kts | 167° |
| 2026-05-05 21:16 | 33.93982 | -118.40820 | 91 ft | 6 kts | 171° |
| 2026-05-05 21:16 | 33.93932 | -118.40811 | 92 ft | 9 kts | 171° |
| 2026-05-05 21:16 | 33.93875 | -118.40768 | 94 ft | 11 kts | 133° |
| 2026-05-05 21:16 | 33.93820 | -118.40718 | 95 ft | 11 kts | 132° |
| 2026-05-05 21:17 | 33.93814 | -118.40628 | 94 ft | 13 kts | 82° |
| 2026-05-05 21:17 | 33.93827 | -118.40509 | 95 ft | 16 kts | 83° |
| 2026-05-05 21:17 | 33.93841 | -118.40368 | 97 ft | 18 kts | 84° |
| 2026-05-05 21:17 | 33.93856 | -118.40213 | 97 ft | 18 kts | 82° |
| 2026-05-05 21:18 | 33.93874 | -118.40049 | 96 ft | 21 kts | 83° |
| 2026-05-05 21:18 | 33.93892 | -118.39861 | 95 ft | 20 kts | 84° |
| 2026-05-05 21:18 | 33.93910 | -118.39685 | 96 ft | 23 kts | 83° |
| 2026-05-05 21:18 | 33.93930 | -118.39481 | 94 ft | 26 kts | 83° |
| 2026-05-05 21:19 | 33.93951 | -118.39291 | 93 ft | 22 kts | 83° |
| 2026-05-05 21:19 | 33.93971 | -118.39095 | 94 ft | 25 kts | 82° |
| 2026-05-05 21:19 | 33.93992 | -118.38878 | 94 ft | 27 kts | 84° |
| 2026-05-05 21:19 | 33.94002 | -118.38779 | 94 ft | 8 kts | 83° |
| 2026-05-05 21:20 | 33.94009 | -118.38703 | 94 ft | 11 kts | 83° |
| 2026-05-05 21:20 | 33.94021 | -118.38604 | 95 ft | 13 kts | 82° |
| 2026-05-05 21:20 | 33.94034 | -118.38480 | 95 ft | 17 kts | 83° |
| 2026-05-05 21:20 | 33.94044 | -118.38369 | 95 ft | 8 kts | 90° |
| 2026-05-05 21:21 | 33.94041 | -118.38357 | 95 ft | 0 kts | 111° |
| 2026-05-05 21:21 | 33.94040 | -118.38356 | 98 ft | 1 kts | 112° |
| 2026-05-05 21:21 | 33.94035 | -118.38348 | 97 ft | 2 kts | 130° |
| 2026-05-05 21:21 | 33.94022 | -118.38336 | 96 ft | 4 kts | 147° |
| 2026-05-05 21:22 | 33.93993 | -118.38329 | 98 ft | 5 kts | 173° |
| 2026-05-05 21:22 | 33.93958 | -118.38334 | 98 ft | 5 kts | 218° |
| 2026-05-05 21:22 | 33.93949 | -118.38363 | 98 ft | 0 kts | 261° |
| 2026-05-05 21:22 | 33.93939 | -118.38462 | 101 ft | 41 kts | 263° |
| 2026-05-05 21:23 | 33.93877 | -118.39065 | 96 ft | 101 kts | 263° |
| 2026-05-05 21:23 | 33.93771 | -118.40096 | 100 ft | 145 kts | 263° |
| 2026-05-05 21:23 | 33.93645 | -118.41352 | 577 ft | 144 kts | 263° |
| 2026-05-05 21:23 | 33.93557 | -118.42501 | 1313 ft | 136 kts | 264° |
| 2026-05-05 21:24 | 33.93441 | -118.43694 | 1692 ft | 153 kts | 262° |
| 2026-05-05 21:24 | 33.93289 | -118.45037 | 2036 ft | 174 kts | 262° |
| 2026-05-05 21:24 | 33.93125 | -118.46545 | 2558 ft | 189 kts | 262° |
| 2026-05-05 21:24 | 33.92970 | -118.48233 | 2998 ft | 217 kts | 264° |
| 2026-05-05 21:25 | 33.92814 | -118.50133 | 3480 ft | 243 kts | 264° |
| 2026-05-05 21:25 | 33.92649 | -118.52211 | 4272 ft | 255 kts | 264° |
| 2026-05-05 21:25 | 33.92475 | -118.54372 | 5130 ft | 265 kts | 264° |
| 2026-05-05 21:25 | 33.92291 | -118.56602 | 6086 ft | 271 kts | 265° |
| 2026-05-05 21:26 | 33.92101 | -118.58880 | 7022 ft | 275 kts | 265° |
| 2026-05-05 21:26 | 33.91908 | -118.61179 | 8066 ft | 273 kts | 266° |
| 2026-05-05 21:26 | 33.91753 | -118.63361 | 9444 ft | 257 kts | 273° |
| 2026-05-05 21:26 | 33.91745 | -118.65489 | 10521 ft | 254 kts | 272° |
| 2026-05-05 21:27 | 33.91746 | -118.67635 | 11110 ft | 261 kts | 274° |
| 2026-05-05 21:27 | 33.92134 | -118.69688 | 11210 ft | 247 kts | 301° |
| 2026-05-05 21:27 | 33.93248 | -118.71255 | 11320 ft | 251 kts | 327° |
| 2026-05-05 21:27 | 33.94841 | -118.72023 | 11429 ft | 249 kts | 353° |
| 2026-05-05 21:28 | 33.96585 | -118.71797 | 11554 ft | 264 kts | 20° |
| 2026-05-05 21:28 | 33.98175 | -118.70493 | 11793 ft | 294 kts | 46° |
| 2026-05-05 21:28 | 33.99419 | -118.68399 | 12107 ft | 321 kts | 56° |
| 2026-05-05 21:28 | 34.00571 | -118.66027 | 12392 ft | 344 kts | 58° |
| 2026-05-05 21:29 | 34.01762 | -118.63481 | 13080 ft | 352 kts | 58° |
| 2026-05-05 21:29 | 34.02987 | -118.60903 | 13854 ft | 358 kts | 58° |
| 2026-05-05 21:29 | 34.04256 | -118.58299 | 14579 ft | 362 kts | 58° |
| 2026-05-05 21:29 | 34.05553 | -118.55687 | 15383 ft | 364 kts | 57° |
| 2026-05-05 21:30 | 34.06871 | -118.53059 | 16096 ft | 368 kts | 57° |
| 2026-05-05 21:30 | 34.08205 | -118.50399 | 16817 ft | 373 kts | 57° |
| 2026-05-05 21:30 | 34.09553 | -118.47712 | 17562 ft | 376 kts | 57° |
| 2026-05-05 21:30 | 34.10911 | -118.44998 | 18275 ft | 380 kts | 57° |
| 2026-05-05 21:31 | 34.12260 | -118.42296 | 18933 ft | 382 kts | 57° |
| 2026-05-05 21:31 | 34.13636 | -118.39542 | 19620 ft | 384 kts | 57° |
| 2026-05-05 21:31 | 34.15020 | -118.36769 | 20302 ft | 387 kts | 57° |
| 2026-05-05 21:31 | 34.16406 | -118.33991 | 20944 ft | 390 kts | 57° |
| 2026-05-05 21:32 | 34.17801 | -118.31185 | 21581 ft | 393 kts | 57° |
| 2026-05-05 21:32 | 34.19203 | -118.28363 | 22190 ft | 395 kts | 57° |
| 2026-05-05 21:32 | 34.20626 | -118.25500 | 22767 ft | 399 kts | 57° |
| 2026-05-05 21:32 | 34.22058 | -118.22621 | 23422 ft | 401 kts | 57° |
| 2026-05-05 21:33 | 34.23500 | -118.19714 | 23933 ft | 404 kts | 57° |
| 2026-05-05 21:33 | 34.24930 | -118.16828 | 24432 ft | 407 kts | 57° |
| 2026-05-05 21:33 | 34.26385 | -118.13891 | 24931 ft | 409 kts | 57° |
| 2026-05-05 21:33 | 34.27856 | -118.10922 | 25416 ft | 412 kts | 57° |
| 2026-05-05 21:34 | 34.29331 | -118.07942 | 25897 ft | 415 kts | 57° |
| 2026-05-05 21:34 | 34.30813 | -118.04947 | 26429 ft | 416 kts | 57° |
| 2026-05-05 21:34 | 34.32307 | -118.01924 | 26852 ft | 419 kts | 57° |
| 2026-05-05 21:34 | 34.33790 | -117.98915 | 27503 ft | 417 kts | 57° |
| 2026-05-05 21:35 | 34.35276 | -117.95901 | 27955 ft | 418 kts | 57° |
| 2026-05-05 21:35 | 34.36758 | -117.92896 | 28290 ft | 423 kts | 57° |
| 2026-05-05 21:35 | 34.38265 | -117.89835 | 28699 ft | 425 kts | 58° |
| 2026-05-05 21:35 | 34.39780 | -117.86755 | 28905 ft | 427 kts | 57° |
| 2026-05-05 21:36 | 34.42824 | -117.80558 | 28976 ft | 427 kts | 58° |
| 2026-05-05 21:36 | 34.45852 | -117.74379 | 28972 ft | 427 kts | 57° |
| 2026-05-05 21:37 | 34.48880 | -117.68191 | 28973 ft | 427 kts | 57° |
| 2026-05-05 21:37 | 34.51883 | -117.62043 | 28982 ft | 427 kts | 57° |
| 2026-05-05 21:38 | 34.54895 | -117.55868 | 28998 ft | 428 kts | 58° |
| 2026-05-05 21:38 | 34.57907 | -117.49682 | 29016 ft | 427 kts | 58° |
| 2026-05-05 21:39 | 34.60420 | -117.44513 | 29018 ft | 431 kts | 58° |
| 2026-05-05 21:39 | 34.63459 | -117.38251 | 29017 ft | 430 kts | 58° |
| 2026-05-05 21:40 | 34.66982 | -117.30976 | 29016 ft | 430 kts | 58° |
| 2026-05-05 21:40 | 34.69509 | -117.25748 | 28996 ft | 430 kts | 58° |
| 2026-05-05 21:41 | 34.72513 | -117.19523 | 28971 ft | 430 kts | 58° |
| 2026-05-05 21:41 | 34.75539 | -117.13245 | 28912 ft | 430 kts | 58° |
| 2026-05-05 21:42 | 34.79042 | -117.05964 | 28922 ft | 425 kts | 58° |
| 2026-05-05 21:42 | 34.81525 | -117.00789 | 28929 ft | 423 kts | 59° |
| 2026-05-05 21:43 | 34.84476 | -116.94628 | 28937 ft | 424 kts | 59° |
| 2026-05-05 21:43 | 34.87442 | -116.88427 | 28942 ft | 424 kts | 59° |
| 2026-05-05 21:44 | 34.90419 | -116.82193 | 28944 ft | 427 kts | 59° |
| 2026-05-05 21:44 | 34.93381 | -116.75979 | 28943 ft | 426 kts | 59° |
| 2026-05-05 21:45 | 34.96336 | -116.69768 | 28935 ft | 426 kts | 59° |
| 2026-05-05 21:45 | 34.99307 | -116.63512 | 28923 ft | 426 kts | 59° |
| 2026-05-05 21:46 | 35.02273 | -116.57253 | 28912 ft | 426 kts | 59° |
| 2026-05-05 21:46 | 35.05220 | -116.51026 | 28897 ft | 423 kts | 59° |
| 2026-05-05 21:47 | 35.08160 | -116.44806 | 28816 ft | 421 kts | 59° |
| 2026-05-05 21:47 | 35.09632 | -116.41783 | 28394 ft | 418 kts | 56° |
| 2026-05-05 21:47 | 35.11369 | -116.38964 | 27807 ft | 414 kts | 49° |
| 2026-05-05 21:48 | 35.13325 | -116.36399 | 27196 ft | 411 kts | 46° |
| 2026-05-05 21:48 | 35.15282 | -116.33883 | 26577 ft | 407 kts | 46° |
| 2026-05-05 21:48 | 35.17220 | -116.31381 | 25996 ft | 403 kts | 46° |
| 2026-05-05 21:48 | 35.19137 | -116.28899 | 25382 ft | 400 kts | 46° |
| 2026-05-05 21:49 | 35.21038 | -116.26437 | 24868 ft | 395 kts | 46° |
| 2026-05-05 21:49 | 35.22913 | -116.24006 | 24295 ft | 391 kts | 46° |
| 2026-05-05 21:49 | 35.24745 | -116.21556 | 23703 ft | 389 kts | 48° |
| 2026-05-05 21:49 | 35.26514 | -116.19120 | 23061 ft | 387 kts | 48° |
| 2026-05-05 21:50 | 35.28291 | -116.16657 | 22418 ft | 384 kts | 48° |
| 2026-05-05 21:50 | 35.30058 | -116.14215 | 21772 ft | 382 kts | 48° |
| 2026-05-05 21:50 | 35.31819 | -116.11789 | 21144 ft | 380 kts | 48° |
| 2026-05-05 21:50 | 35.33569 | -116.09382 | 20526 ft | 378 kts | 48° |
| 2026-05-05 21:51 | 35.35308 | -116.06994 | 19917 ft | 376 kts | 48° |
| 2026-05-05 21:51 | 35.37037 | -116.04617 | 19338 ft | 374 kts | 48° |
| 2026-05-05 21:51 | 35.38759 | -116.02249 | 18769 ft | 371 kts | 48° |
| 2026-05-05 21:51 | 35.40447 | -115.99926 | 18259 ft | 368 kts | 48° |
| 2026-05-05 21:52 | 35.43834 | -115.95259 | 17003 ft | 364 kts | 47° |
| 2026-05-05 21:52 | 35.45506 | -115.92951 | 16530 ft | 359 kts | 47° |
| 2026-05-05 21:52 | 35.47160 | -115.90667 | 15910 ft | 358 kts | 47° |
| 2026-05-05 21:53 | 35.48810 | -115.88390 | 15373 ft | 356 kts | 47° |
| 2026-05-05 21:53 | 35.50455 | -115.86117 | 14787 ft | 355 kts | 47° |
| 2026-05-05 21:53 | 35.52090 | -115.83858 | 14228 ft | 353 kts | 47° |
| 2026-05-05 21:53 | 35.53722 | -115.81597 | 13419 ft | 358 kts | 47° |
| 2026-05-05 21:54 | 35.55372 | -115.79314 | 12498 ft | 365 kts | 47° |
| 2026-05-05 21:54 | 35.57052 | -115.76987 | 11854 ft | 363 kts | 48° |
| 2026-05-05 21:54 | 35.58714 | -115.74682 | 11325 ft | 358 kts | 48° |
| 2026-05-05 21:54 | 35.60363 | -115.72410 | 10677 ft | 356 kts | 47° |
| 2026-05-05 21:55 | 35.62015 | -115.70181 | 10185 ft | 350 kts | 47° |
| 2026-05-05 21:55 | 35.63654 | -115.67982 | 9649 ft | 346 kts | 47° |
| 2026-05-05 21:55 | 35.65276 | -115.65802 | 8881 ft | 348 kts | 47° |
| 2026-05-05 21:55 | 35.66908 | -115.63602 | 8151 ft | 349 kts | 47° |
| 2026-05-05 21:56 | 35.68533 | -115.61404 | 7589 ft | 346 kts | 47° |
| 2026-05-05 21:56 | 35.70122 | -115.59253 | 7487 ft | 349 kts | 47° |
| 2026-05-05 21:56 | 35.71781 | -115.57032 | 7381 ft | 353 kts | 44° |
| 2026-05-05 21:56 | 35.73640 | -115.55094 | 7276 ft | 350 kts | 34° |
| 2026-05-05 21:57 | 35.75718 | -115.53546 | 7164 ft | 349 kts | 28° |
| 2026-05-05 21:57 | 35.77838 | -115.52079 | 7064 ft | 350 kts | 28° |
| 2026-05-05 21:57 | 35.79954 | -115.50601 | 7016 ft | 349 kts | 28° |
| 2026-05-05 21:57 | 35.82033 | -115.49139 | 7015 ft | 350 kts | 29° |
| 2026-05-05 21:58 | 35.84118 | -115.47674 | 7008 ft | 351 kts | 29° |
| 2026-05-05 21:58 | 35.86240 | -115.46187 | 7006 ft | 352 kts | 28° |
| 2026-05-05 21:58 | 35.88370 | -115.44692 | 7010 ft | 351 kts | 29° |
| 2026-05-05 21:58 | 35.90459 | -115.43226 | 7011 ft | 351 kts | 29° |
| 2026-05-05 21:59 | 35.92583 | -115.41736 | 7010 ft | 351 kts | 28° |
| 2026-05-05 21:59 | 35.94712 | -115.40249 | 7006 ft | 351 kts | 29° |
| 2026-05-05 21:59 | 35.96799 | -115.38788 | 6995 ft | 337 kts | 28° |
| 2026-05-05 21:59 | 35.98786 | -115.37401 | 6998 ft | 322 kts | 28° |
| 2026-05-05 22:00 | 36.00583 | -115.35713 | 6999 ft | 330 kts | 48° |
| 2026-05-05 22:00 | 36.01750 | -115.33282 | 7004 ft | 333 kts | 71° |
| 2026-05-05 22:00 | 36.02082 | -115.30480 | 7000 ft | 328 kts | 92° |
| 2026-05-05 22:00 | 36.01804 | -115.27702 | 6996 ft | 327 kts | 100° |
| 2026-05-05 22:01 | 36.01420 | -115.24941 | 7017 ft | 329 kts | 99° |
| 2026-05-05 22:01 | 36.01102 | -115.22194 | 6916 ft | 325 kts | 97° |
| 2026-05-05 22:01 | 36.00867 | -115.19429 | 6615 ft | 322 kts | 95° |
| 2026-05-05 22:01 | 36.00696 | -115.16735 | 6442 ft | 305 kts | 94° |
| 2026-05-05 22:02 | 36.00562 | -115.14205 | 6265 ft | 287 kts | 94° |
| 2026-05-05 22:02 | 36.00444 | -115.11826 | 6101 ft | 268 kts | 94° |
| 2026-05-05 22:02 | 36.00334 | -115.09584 | 5835 ft | 256 kts | 94° |
| 2026-05-05 22:02 | 36.00235 | -115.07402 | 5335 ft | 255 kts | 90° |
| 2026-05-05 22:03 | 36.00536 | -115.05248 | 4884 ft | 256 kts | 76° |
| 2026-05-05 22:03 | 36.00960 | -115.03145 | 4600 ft | 255 kts | 76° |
| 2026-05-05 22:03 | 36.01388 | -115.01039 | 4317 ft | 252 kts | 76° |
| 2026-05-05 22:03 | 36.01808 | -114.98964 | 4155 ft | 246 kts | 76° |
| 2026-05-05 22:04 | 36.02251 | -114.96915 | 4028 ft | 246 kts | 69° |
| 2026-05-05 22:04 | 36.03195 | -114.95290 | 3963 ft | 222 kts | 37° |
| 2026-05-05 22:04 | 36.04595 | -114.94481 | 3967 ft | 232 kts | 8° |
| 2026-05-05 22:04 | 36.06171 | -114.94634 | 3954 ft | 227 kts | 332° |
| 2026-05-05 22:05 | 36.07287 | -114.95946 | 3951 ft | 222 kts | 292° |
| 2026-05-05 22:05 | 36.07635 | -114.97691 | 3966 ft | 200 kts | 272° |
| 2026-05-05 22:05 | 36.07654 | -114.99332 | 3979 ft | 189 kts | 266° |
| 2026-05-05 22:05 | 36.07637 | -115.00963 | 3937 ft | 189 kts | 269° |
| 2026-05-05 22:06 | 36.07635 | -115.02599 | 3756 ft | 190 kts | 269° |
| 2026-05-05 22:06 | 36.07636 | -115.04223 | 3464 ft | 189 kts | 269° |
| 2026-05-05 22:06 | 36.07636 | -115.05808 | 3207 ft | 176 kts | 269° |
| 2026-05-05 22:06 | 36.07636 | -115.07247 | 2967 ft | 160 kts | 269° |
| 2026-05-05 22:07 | 36.07637 | -115.08558 | 2762 ft | 145 kts | 269° |
| 2026-05-05 22:07 | 36.07636 | -115.09755 | 2547 ft | 140 kts | 269° |
| 2026-05-05 22:07 | 36.07633 | -115.10964 | 2407 ft | 141 kts | 269° |
| 2026-05-05 22:07 | 36.07630 | -115.12155 | 2206 ft | 141 kts | 270° |
| 2026-05-05 22:08 | 36.07636 | -115.13337 | 2091 ft | 131 kts | 270° |
| 2026-05-05 22:08 | 36.07637 | -115.14659 | 2192 ft | 174 kts | 269° |
| 2026-05-05 22:08 | 36.07645 | -115.16161 | 2884 ft | 172 kts | 270° |
| 2026-05-05 22:08 | 36.07660 | -115.17736 | 3128 ft | 193 kts | 270° |
| 2026-05-05 22:09 | 36.07676 | -115.19502 | 3231 ft | 220 kts | 270° |
| 2026-05-05 22:09 | 36.07711 | -115.21403 | 3334 ft | 222 kts | 276° |
| 2026-05-05 22:09 | 36.08296 | -115.23148 | 3443 ft | 224 kts | 310° |
| 2026-05-05 22:09 | 36.09554 | -115.24223 | 3563 ft | 226 kts | 342° |
| 2026-05-05 22:10 | 36.11115 | -115.24292 | 3684 ft | 231 kts | 16° |
| 2026-05-05 22:10 | 36.12473 | -115.23255 | 4249 ft | 233 kts | 51° |
| 2026-05-05 22:10 | 36.13198 | -115.21483 | 4882 ft | 236 kts | 79° |
| 2026-05-05 22:10 | 36.13303 | -115.19502 | 4992 ft | 229 kts | 91° |
| 2026-05-05 22:11 | 36.13306 | -115.17545 | 5103 ft | 229 kts | 91° |
| 2026-05-05 22:11 | 36.13300 | -115.15560 | 5215 ft | 233 kts | 91° |
| 2026-05-05 22:11 | 36.13285 | -115.13535 | 5326 ft | 237 kts | 91° |
| 2026-05-05 22:11 | 36.13272 | -115.11511 | 5425 ft | 234 kts | 91° |
| 2026-05-05 22:12 | 36.13258 | -115.09522 | 5541 ft | 234 kts | 91° |
| 2026-05-05 22:12 | 36.13243 | -115.07501 | 5656 ft | 236 kts | 91° |
| 2026-05-05 22:12 | 36.13230 | -115.05470 | 5767 ft | 237 kts | 91° |
| 2026-05-05 22:12 | 36.13217 | -115.03440 | 5821 ft | 236 kts | 91° |
| 2026-05-05 22:13 | 36.13200 | -115.01409 | 5928 ft | 236 kts | 91° |
| 2026-05-05 22:13 | 36.13190 | -114.99366 | 5930 ft | 240 kts | 91° |
| 2026-05-05 22:13 | 36.13189 | -114.97302 | 5928 ft | 240 kts | 91° |
| 2026-05-05 22:13 | 36.13194 | -114.95249 | 5917 ft | 237 kts | 91° |
| 2026-05-05 22:14 | 36.13148 | -114.93222 | 5708 ft | 235 kts | 102° |
| 2026-05-05 22:14 | 36.12630 | -114.91332 | 5458 ft | 233 kts | 105° |
| 2026-05-05 22:14 | 36.12625 | -114.89360 | 5105 ft | 236 kts | 75° |
| 2026-05-05 22:14 | 36.13139 | -114.87436 | 4826 ft | 236 kts | 71° |
| 2026-05-05 22:15 | 36.13685 | -114.85529 | 4543 ft | 235 kts | 71° |
| 2026-05-05 22:15 | 36.14158 | -114.83607 | 4231 ft | 234 kts | 85° |
| 2026-05-05 22:15 | 36.13923 | -114.81654 | 3930 ft | 230 kts | 118° |
| 2026-05-05 22:15 | 36.12912 | -114.80207 | 3684 ft | 222 kts | 151° |
| 2026-05-05 22:16 | 36.11452 | -114.79719 | 3614 ft | 223 kts | 185° |
| 2026-05-05 22:16 | 36.10012 | -114.80316 | 3557 ft | 219 kts | 218° |
| 2026-05-05 22:16 | 36.09081 | -114.81792 | 3558 ft | 222 kts | 247° |
| 2026-05-05 22:16 | 36.08667 | -114.83601 | 3542 ft | 219 kts | 261° |
| 2026-05-05 22:17 | 36.08508 | -114.85416 | 3555 ft | 205 kts | 265° |
| 2026-05-05 22:17 | 36.08437 | -114.87141 | 3545 ft | 201 kts | 266° |
| 2026-05-05 22:17 | 36.08370 | -114.88882 | 3548 ft | 201 kts | 266° |
| 2026-05-05 22:17 | 36.08292 | -114.90605 | 3551 ft | 202 kts | 266° |
| 2026-05-05 22:18 | 36.08136 | -114.92347 | 3544 ft | 206 kts | 258° |
| 2026-05-05 22:18 | 36.07737 | -114.94030 | 3548 ft | 202 kts | 254° |
| 2026-05-05 22:18 | 36.07579 | -114.95751 | 3540 ft | 205 kts | 269° |
| 2026-05-05 22:18 | 36.07605 | -114.97496 | 3572 ft | 205 kts | 271° |
| 2026-05-05 22:19 | 36.07633 | -114.99193 | 3557 ft | 186 kts | 269° |
| 2026-05-05 22:19 | 36.07636 | -115.00795 | 3591 ft | 192 kts | 270° |
| 2026-05-05 22:19 | 36.07637 | -115.02431 | 3587 ft | 190 kts | 269° |
| 2026-05-05 22:19 | 36.07636 | -115.04069 | 3525 ft | 192 kts | 269° |
| 2026-05-05 22:20 | 36.07637 | -115.05698 | 3230 ft | 187 kts | 269° |
| 2026-05-05 22:20 | 36.07636 | -115.07333 | 2972 ft | 193 kts | 269° |
| 2026-05-05 22:20 | 36.07637 | -115.09006 | 2699 ft | 192 kts | 269° |
| 2026-05-05 22:20 | 36.07637 | -115.10662 | 2411 ft | 190 kts | 270° |
| 2026-05-05 22:21 | 36.07637 | -115.12199 | 2166 ft | 167 kts | 270° |
| 2026-05-05 22:21 | 36.07636 | -115.13514 | 2090 ft | 139 kts | 270° |
| 2026-05-05 22:21 | 36.07637 | -115.14455 | 2097 ft | 81 kts | 271° |
| 2026-05-05 22:21 | 36.07642 | -115.14890 | 2103 ft | 38 kts | 269° |
| 2026-05-05 22:22 | 36.07641 | -115.15131 | 2109 ft | 21 kts | 271° |
| 2026-05-05 22:22 | 36.07694 | -115.15235 | 2109 ft | 15 kts | 337° |
| 2026-05-05 22:22 | 36.07752 | -115.15261 | 2104 ft | 0 kts | 338° |
| 2026-05-05 22:23 | 36.07758 | -115.15264 | 2104 ft | 4 kts | 338° |
| 2026-05-05 22:23 | 36.07797 | -115.15254 | 2102 ft | 9 kts | 37° |
| 2026-05-05 22:23 | 36.07857 | -115.15204 | 2099 ft | 7 kts | 21° |
| 2026-05-05 22:23 | 36.07878 | -115.15144 | 2098 ft | 9 kts | 86° |
| 2026-05-05 22:24 | 36.07876 | -115.15048 | 2098 ft | 13 kts | 92° |
| 2026-05-05 22:24 | 36.07866 | -115.14929 | 2098 ft | 15 kts | 95° |
| 2026-05-05 22:24 | 36.07857 | -115.14787 | 2097 ft | 18 kts | 94° |
| 2026-05-05 22:24 | 36.07848 | -115.14658 | 2096 ft | 16 kts | 95° |
| 2026-05-05 22:25 | 36.07838 | -115.14512 | 2096 ft | 18 kts | 94° |
| 2026-05-05 22:25 | 36.07829 | -115.14365 | 2096 ft | 18 kts | 94° |
| 2026-05-05 22:25 | 36.07828 | -115.14215 | 2095 ft | 17 kts | 89° |
| 2026-05-05 22:25 | 36.07827 | -115.14052 | 2093 ft | 20 kts | 90° |
| 2026-05-05 22:26 | 36.07828 | -115.13869 | 2092 ft | 20 kts | 90° |
| 2026-05-05 22:26 | 36.07827 | -115.13723 | 2092 ft | 12 kts | 90° |
| 2026-05-05 22:26 | 36.07831 | -115.13617 | 2092 ft | 13 kts | 71° |
| 2026-05-05 22:26 | 36.07896 | -115.13601 | 2091 ft | 2 kts | 317° |
| 2026-05-05 22:27 | 36.07918 | -115.13621 | 2092 ft | 6 kts | 324° |
| 2026-05-05 22:27 | 36.07951 | -115.13662 | 2092 ft | 8 kts | 314° |
| 2026-05-05 22:27 | 36.07987 | -115.13686 | 2092 ft | 6 kts | 13° |
| 2026-05-05 22:27 | 36.08010 | -115.13636 | 2092 ft | 8 kts | 65° |
| 2026-05-05 22:28 | 36.08021 | -115.13606 | 2092 ft | 2 kts | 66° |
| 2026-05-05 22:28 | 36.08021 | -115.13604 | 2091 ft | 0 kts | 66° |